createdAt,value
2023-05-22T00:02:17.888Z,14.68
2023-05-22T00:05:12.545Z,14.65
2023-05-22T00:08:06.799Z,14.63
2023-05-22T00:11:01.090Z,14.60
2023-05-22T00:14:04.600Z,14.57
2023-05-22T00:16:58.589Z,14.57
2023-05-22T00:20:04.050Z,14.56
2023-05-22T00:23:03.398Z,14.54
2023-05-22T00:26:09.783Z,14.51
2023-05-22T00:29:20.733Z,14.50
2023-05-22T00:32:14.337Z,14.45
2023-05-22T00:35:06.736Z,14.41
2023-05-22T00:38:31.231Z,14.35
2023-05-22T00:41:24.327Z,14.30
2023-05-22T00:44:35.302Z,14.30
2023-05-22T00:47:38.945Z,14.32
2023-05-22T00:50:38.835Z,14.37
2023-05-22T00:53:39.477Z,14.41
2023-05-22T00:56:35.711Z,14.48
2023-05-22T00:59:46.652Z,14.56
2023-05-22T01:02:57.601Z,14.65
2023-05-22T01:06:08.741Z,14.74
2023-05-22T01:09:01.780Z,14.76
2023-05-22T01:12:00.113Z,14.75
2023-05-22T01:14:55.923Z,14.73
2023-05-22T01:17:54.777Z,14.74
2023-05-22T01:20:52.198Z,14.72
2023-05-22T01:24:11.790Z,14.68
2023-05-22T01:27:19.806Z,14.65
2023-05-22T01:30:21.330Z,14.62
2023-05-22T01:33:15.227Z,14.62
2023-05-22T01:36:11.855Z,14.60
2023-05-22T01:39:13.283Z,14.57
2023-05-22T01:42:12.498Z,14.54
2023-05-22T01:45:10.324Z,14.50
2023-05-22T01:48:03.506Z,14.45
2023-05-22T01:50:58.956Z,14.40
2023-05-22T01:53:58.877Z,14.36
2023-05-22T01:56:56.188Z,14.32
2023-05-22T02:00:02.659Z,14.25
2023-05-22T02:02:58.301Z,14.20
2023-05-22T02:05:51.472Z,14.18
2023-05-22T02:08:43.610Z,14.15
2023-05-22T02:11:39.560Z,14.13
2023-05-22T02:14:31.073Z,14.10
2023-05-22T02:17:32.393Z,14.08
2023-05-22T02:20:31.339Z,14.06
2023-05-22T02:23:30.003Z,14.06
2023-05-22T02:26:40.922Z,14.06
2023-05-22T02:29:32.098Z,14.02
2023-05-22T02:32:43.430Z,14.02
2023-05-22T02:35:47.255Z,13.98
2023-05-22T02:38:58.513Z,13.90
2023-05-22T02:42:01.017Z,13.84
2023-05-22T02:45:13.027Z,13.76
2023-05-22T02:48:24.258Z,13.67
2023-05-22T02:51:18.143Z,13.57
2023-05-22T02:54:09.073Z,13.43
2023-05-22T02:57:02.967Z,13.33
2023-05-22T02:59:59.392Z,13.22
2023-05-22T03:03:04.383Z,13.10
2023-05-22T03:06:10.604Z,12.98
2023-05-22T03:09:21.542Z,12.92
2023-05-22T03:12:33.139Z,12.89
2023-05-22T03:15:26.361Z,12.88
2023-05-22T03:18:37.984Z,12.88
2023-05-22T03:21:42.239Z,12.86
2023-05-22T03:24:41.913Z,12.84
2023-05-22T03:27:52.756Z,12.79
2023-05-22T03:30:55.624Z,12.73
2023-05-22T03:33:51.954Z,12.67
2023-05-22T03:37:03.255Z,12.64
2023-05-22T03:40:07.957Z,12.61
2023-05-22T03:43:12.653Z,12.59
2023-05-22T03:46:23.741Z,12.58
2023-05-22T03:49:35.191Z,12.59
2023-05-22T03:52:35.837Z,12.58
2023-05-22T03:55:46.654Z,12.53
2023-05-22T03:58:48.865Z,12.47
2023-05-22T04:02:01.542Z,12.47
2023-05-22T04:05:05.561Z,12.44
2023-05-22T04:08:07.531Z,12.39
2023-05-22T04:11:18.752Z,12.36
2023-05-22T04:14:22.096Z,12.33
2023-05-22T04:17:36.624Z,12.26
2023-05-22T04:20:47.759Z,12.19
2023-05-22T04:23:58.526Z,12.11
2023-05-22T04:27:10.128Z,12.01
2023-05-22T04:30:17.209Z,11.93
2023-05-22T04:33:29.182Z,11.87
2023-05-22T04:36:40.242Z,11.85
2023-05-22T04:39:44.545Z,11.80
2023-05-22T04:42:42.602Z,11.78
2023-05-22T04:45:56.933Z,11.79
2023-05-22T04:49:08.709Z,11.84
2023-05-22T04:52:19.912Z,11.88
2023-05-22T04:55:34.115Z,11.85
2023-05-22T04:58:32.234Z,11.84
2023-05-22T05:01:25.232Z,11.84
2023-05-22T05:04:19.110Z,11.83
2023-05-22T05:07:12.253Z,11.82
2023-05-22T05:10:21.819Z,11.84
2023-05-22T05:13:26.405Z,11.90
2023-05-22T05:16:36.253Z,11.92
2023-05-22T05:19:47.129Z,11.89
2023-05-22T05:22:58.062Z,11.88
2023-05-22T05:26:09.392Z,11.93
2023-05-22T05:29:14.263Z,11.96
2023-05-22T05:32:25.302Z,11.97
2023-05-22T05:35:45.482Z,11.94
2023-05-22T05:38:54.503Z,11.92
2023-05-22T05:41:47.871Z,11.92
2023-05-22T05:44:58.734Z,11.92
2023-05-22T05:48:09.893Z,11.93
2023-05-22T05:51:07.829Z,11.95
2023-05-22T05:54:18.646Z,11.97
2023-05-22T05:57:14.139Z,12.06
2023-05-22T06:00:25.913Z,12.14
2023-05-22T06:03:27.384Z,12.22
2023-05-22T06:06:37.112Z,12.28
2023-05-22T06:09:56.027Z,12.36
2023-05-22T06:13:08.662Z,12.38
2023-05-22T06:16:04.820Z,12.36
2023-05-22T06:19:01.187Z,12.33
2023-05-22T06:21:55.788Z,12.33
2023-05-22T06:24:58.000Z,12.28
2023-05-22T06:28:03.782Z,12.25
2023-05-22T06:30:54.947Z,12.17
2023-05-22T06:33:46.576Z,12.09
2023-05-22T06:36:43.939Z,12.05
2023-05-22T06:39:40.019Z,12.03
2023-05-22T06:43:12.556Z,12.04
2023-05-22T06:46:26.081Z,12.08
2023-05-22T06:49:27.441Z,12.18
2023-05-22T06:52:21.950Z,12.32
2023-05-22T06:55:15.437Z,12.37
2023-05-22T06:58:26.598Z,12.43
2023-05-22T07:01:23.748Z,12.55
2023-05-22T07:04:37.924Z,12.71
2023-05-22T07:07:53.190Z,12.85
2023-05-22T07:10:57.916Z,13.08
2023-05-22T07:14:09.189Z,13.32
2023-05-22T07:17:22.218Z,13.48
2023-05-22T07:20:28.462Z,13.57
2023-05-22T07:23:51.632Z,13.68
2023-05-22T07:26:59.065Z,13.86
2023-05-22T07:29:52.961Z,14.06
2023-05-22T07:32:44.974Z,14.26
2023-05-22T07:35:47.378Z,14.39
2023-05-22T07:38:44.744Z,14.45
2023-05-22T07:41:35.640Z,14.62
2023-05-22T07:44:29.294Z,14.71
2023-05-22T07:47:20.405Z,14.77
2023-05-22T07:50:12.705Z,14.86
2023-05-22T07:53:08.539Z,15.00
2023-05-22T07:56:00.688Z,15.28
2023-05-22T07:58:54.428Z,15.73
2023-05-22T08:01:45.502Z,16.26
2023-05-22T08:04:36.298Z,16.66
2023-05-22T08:07:27.163Z,17.25
2023-05-22T08:10:24.012Z,17.81
2023-05-22T08:13:19.687Z,18.29
2023-05-22T08:16:11.330Z,18.67
2023-05-22T08:19:02.007Z,19.03
2023-05-22T08:21:58.281Z,19.46
2023-05-22T08:24:49.107Z,19.96
2023-05-22T08:27:39.749Z,20.22
2023-05-22T08:30:30.523Z,20.44
2023-05-22T08:33:21.277Z,20.83
2023-05-22T08:36:12.081Z,21.22
2023-05-22T08:39:07.864Z,21.56
2023-05-22T08:41:59.642Z,21.93
2023-05-22T08:44:50.356Z,22.48
2023-05-22T08:47:45.267Z,22.86
2023-05-22T08:50:38.708Z,23.21
2023-05-22T08:53:30.216Z,23.48
2023-05-22T08:56:21.610Z,23.68
2023-05-22T08:59:12.863Z,23.97
2023-05-22T09:02:06.828Z,24.45
2023-05-22T09:04:57.749Z,25.05
2023-05-22T09:07:49.156Z,25.48
2023-05-22T09:10:40.225Z,25.94
2023-05-22T09:13:31.654Z,26.30
2023-05-22T09:16:22.701Z,26.67
2023-05-22T09:19:14.100Z,26.96
2023-05-22T09:22:06.506Z,27.21
2023-05-22T09:24:59.426Z,27.59
2023-05-22T09:27:49.798Z,28.11
2023-05-22T09:30:42.768Z,28.52
2023-05-22T09:33:33.705Z,28.68
2023-05-22T09:36:32.616Z,28.80
2023-05-22T09:39:23.143Z,29.16
2023-05-22T09:42:18.288Z,29.45
2023-05-22T09:45:10.214Z,29.77
2023-05-22T09:48:01.066Z,29.35
2023-05-22T09:50:52.312Z,29.20
2023-05-22T09:53:44.372Z,29.54
2023-05-22T09:56:39.753Z,29.84
2023-05-22T09:59:33.198Z,30.14
2023-05-22T10:02:24.412Z,28.90
2023-05-22T10:05:22.155Z,26.96
2023-05-22T10:08:15.529Z,25.46
2023-05-22T10:11:07.477Z,25.21
2023-05-22T10:13:59.046Z,26.43
2023-05-22T10:16:53.659Z,26.65
2023-05-22T10:19:45.378Z,26.47
2023-05-22T10:22:37.975Z,27.10
2023-05-22T10:25:28.807Z,26.79
2023-05-22T10:28:36.905Z,26.36
2023-05-22T10:31:30.189Z,27.78
2023-05-22T10:34:42.764Z,29.37
2023-05-22T10:37:44.553Z,30.11
2023-05-22T10:40:36.559Z,29.65
2023-05-22T10:43:31.167Z,29.54
2023-05-22T10:46:22.696Z,28.98
2023-05-22T10:49:22.709Z,27.70
2023-05-22T10:52:15.058Z,26.94
2023-05-22T10:55:09.561Z,27.29
2023-05-22T10:58:13.907Z,28.11
2023-05-22T11:01:15.012Z,27.44
2023-05-22T11:04:12.523Z,26.60
2023-05-22T11:07:09.009Z,25.69
2023-05-22T11:10:02.833Z,25.51
2023-05-22T11:13:12.710Z,25.23
2023-05-22T11:16:06.112Z,26.94
2023-05-22T11:19:21.138Z,28.01
2023-05-22T11:22:14.089Z,28.78
2023-05-22T11:25:07.711Z,30.02
2023-05-22T11:27:58.997Z,30.24
2023-05-22T11:30:49.704Z,30.26
2023-05-22T11:33:40.469Z,31.25
2023-05-22T11:36:31.856Z,32.00
2023-05-22T11:39:24.434Z,32.51
2023-05-22T11:42:15.158Z,33.57
2023-05-22T11:45:06.170Z,33.59
2023-05-22T11:47:56.931Z,32.47
2023-05-22T11:50:48.443Z,32.13
2023-05-22T11:53:39.130Z,32.74
2023-05-22T11:56:29.413Z,33.46
2023-05-22T11:59:22.260Z,33.08
2023-05-22T12:02:13.752Z,31.73
2023-05-22T12:05:04.734Z,31.69
2023-05-22T12:07:55.518Z,32.05
2023-05-22T12:10:50.703Z,32.09
2023-05-22T12:13:41.922Z,32.53
2023-05-22T12:16:35.695Z,32.94
2023-05-22T12:19:26.970Z,32.76
2023-05-22T12:22:17.671Z,33.16
2023-05-22T12:25:13.986Z,33.41
2023-05-22T12:28:04.148Z,33.25
2023-05-22T12:30:57.983Z,33.10
2023-05-22T12:33:48.496Z,31.87
2023-05-22T12:36:41.993Z,31.29
2023-05-22T12:39:32.603Z,31.67
2023-05-22T12:42:23.298Z,32.13
2023-05-22T12:45:14.577Z,32.61
2023-05-22T12:48:05.232Z,31.75
2023-05-22T12:50:56.053Z,30.76
2023-05-22T12:53:46.921Z,29.92
2023-05-22T12:56:37.494Z,28.80
2023-05-22T12:59:28.028Z,29.01
2023-05-22T13:02:18.823Z,30.24
2023-05-22T13:05:09.874Z,30.25
2023-05-22T13:08:00.867Z,29.11
2023-05-22T13:10:51.530Z,28.79
2023-05-22T13:13:42.013Z,29.55
2023-05-22T13:16:33.338Z,28.81
2023-05-22T13:19:24.004Z,27.88
2023-05-22T13:22:14.968Z,28.42
2023-05-22T13:25:05.812Z,27.85
2023-05-22T13:27:56.728Z,27.19
2023-05-22T13:30:47.570Z,26.88
2023-05-22T13:33:38.256Z,25.94
2023-05-22T13:36:29.144Z,25.16
2023-05-22T13:39:20.064Z,24.48
2023-05-22T13:42:10.707Z,24.13
2023-05-22T13:45:01.187Z,24.37
2023-05-22T13:47:51.761Z,25.32
2023-05-22T13:50:42.354Z,26.01
2023-05-22T13:53:33.293Z,26.43
2023-05-22T13:56:24.187Z,26.02
2023-05-22T13:59:15.058Z,25.56
2023-05-22T14:02:06.134Z,25.07
2023-05-22T14:04:56.937Z,25.00
2023-05-22T14:07:47.675Z,25.45
2023-05-22T14:10:38.974Z,25.72
2023-05-22T14:13:29.504Z,25.19
2023-05-22T14:16:20.260Z,24.50
2023-05-22T14:19:11.080Z,24.50
2023-05-22T14:22:01.895Z,24.87
2023-05-22T14:24:52.890Z,24.63
2023-05-22T14:27:45.962Z,24.34
2023-05-22T14:30:36.697Z,23.79
2023-05-22T14:33:27.245Z,23.27
2023-05-22T14:36:18.032Z,23.15
2023-05-22T14:39:08.708Z,23.32
2023-05-22T14:41:59.668Z,22.94
2023-05-22T14:44:50.372Z,22.55
2023-05-22T14:47:43.294Z,22.53
2023-05-22T14:50:33.885Z,22.96
2023-05-22T14:53:24.772Z,23.30
2023-05-22T14:56:15.777Z,23.68
2023-05-22T14:59:06.601Z,23.70
2023-05-22T15:01:57.217Z,23.47
2023-05-22T15:04:48.032Z,23.08
2023-05-22T15:07:44.645Z,22.63
2023-05-22T15:10:39.735Z,22.37
2023-05-22T15:13:30.373Z,22.40
2023-05-22T15:16:23.186Z,22.55
2023-05-22T15:19:14.031Z,22.62
2023-05-22T15:22:18.239Z,22.68
2023-05-22T15:25:12.008Z,22.71
2023-05-22T15:28:02.764Z,22.82
2023-05-22T15:30:54.118Z,22.94
2023-05-22T15:33:44.751Z,22.89
2023-05-22T15:36:36.706Z,22.64
2023-05-22T15:39:30.555Z,22.47
2023-05-22T15:42:22.073Z,22.31
2023-05-22T15:45:13.349Z,22.09
2023-05-22T15:48:05.011Z,21.80
2023-05-22T15:50:55.301Z,21.61
2023-05-22T15:53:46.456Z,21.51
2023-05-22T15:56:37.008Z,21.50
2023-05-22T15:59:27.546Z,21.62
2023-05-22T16:02:21.127Z,21.74
2023-05-22T16:05:12.237Z,21.72
2023-05-22T16:08:03.205Z,21.62
2023-05-22T16:10:55.701Z,21.52
2023-05-22T16:13:55.778Z,21.42
2023-05-22T16:16:46.429Z,21.34
2023-05-22T16:19:40.287Z,21.04
2023-05-22T16:22:44.075Z,20.89
2023-05-22T16:25:39.296Z,20.89
2023-05-22T16:28:30.798Z,20.91
2023-05-22T16:31:21.691Z,20.98
2023-05-22T16:34:12.489Z,20.98
2023-05-22T16:37:03.282Z,20.90
2023-05-22T16:39:53.909Z,20.73
2023-05-22T16:42:44.765Z,20.57
2023-05-22T16:45:35.937Z,20.46
2023-05-22T16:48:26.985Z,20.49
2023-05-22T16:51:17.665Z,20.50
2023-05-22T16:54:08.493Z,20.50
2023-05-22T16:56:59.290Z,20.55
2023-05-22T16:59:50.797Z,20.46
2023-05-22T17:02:41.967Z,20.26
2023-05-22T17:05:36.276Z,20.08
2023-05-22T17:08:29.622Z,19.86
2023-05-22T17:11:20.180Z,19.69
2023-05-22T17:14:11.598Z,19.57
2023-05-22T17:17:02.597Z,19.47
2023-05-22T17:19:54.349Z,19.37
2023-05-22T17:22:45.239Z,19.33
2023-05-22T17:25:38.658Z,19.33
2023-05-22T17:28:29.364Z,19.39
2023-05-22T17:31:23.876Z,19.45
2023-05-22T17:34:14.508Z,19.49
2023-05-22T17:37:08.046Z,19.50
2023-05-22T17:39:58.525Z,19.52
2023-05-22T17:42:48.994Z,19.56
2023-05-22T17:45:39.788Z,19.48
2023-05-22T17:48:30.429Z,19.42
2023-05-22T17:51:21.289Z,19.39
2023-05-22T17:54:11.913Z,19.37
2023-05-22T17:57:04.224Z,19.31
2023-05-22T17:59:54.721Z,19.22
2023-05-22T18:02:48.209Z,19.12
2023-05-22T18:05:39.191Z,19.06
2023-05-22T18:08:32.118Z,19.00
2023-05-22T18:11:22.716Z,18.93
2023-05-22T18:14:13.412Z,18.88
2023-05-22T18:17:07.890Z,18.83
2023-05-22T18:19:58.580Z,18.74
2023-05-22T18:22:52.181Z,18.70
2023-05-22T18:25:43.480Z,18.67
2023-05-22T18:28:36.483Z,18.64
2023-05-22T18:31:36.035Z,18.61
2023-05-22T18:34:32.528Z,18.55
2023-05-22T18:37:26.251Z,18.45
2023-05-22T18:40:19.077Z,18.34
2023-05-22T18:43:12.019Z,18.26
2023-05-22T18:46:02.876Z,18.18
2023-05-22T18:48:56.676Z,18.05
2023-05-22T18:52:07.649Z,17.95
2023-05-22T18:55:23.322Z,17.87
2023-05-22T18:58:23.124Z,17.81
2023-05-22T19:01:13.840Z,17.74
2023-05-22T19:04:12.647Z,17.70
2023-05-22T19:07:08.992Z,17.66
2023-05-22T19:09:59.769Z,17.62
2023-05-22T19:12:53.575Z,17.58
2023-05-22T19:15:44.371Z,17.53
2023-05-22T19:18:35.150Z,17.46
2023-05-22T19:21:26.561Z,17.36
2023-05-22T19:24:17.673Z,17.23
2023-05-22T19:27:11.458Z,17.12
2023-05-22T19:30:22.027Z,17.03
2023-05-22T19:33:14.882Z,17.01
2023-05-22T19:36:15.560Z,17.01
2023-05-22T19:39:16.607Z,16.97
2023-05-22T19:42:09.643Z,16.85
2023-05-22T19:45:02.283Z,16.73
2023-05-22T19:47:52.828Z,16.61
2023-05-22T19:50:43.517Z,16.52
2023-05-22T19:53:54.258Z,16.42
2023-05-22T19:56:45.003Z,16.31
2023-05-22T19:59:43.271Z,16.18
2023-05-22T20:02:34.237Z,16.07
2023-05-22T20:05:36.554Z,15.93
2023-05-22T20:08:30.541Z,15.80
2023-05-22T20:11:29.303Z,15.68
2023-05-22T20:14:22.720Z,15.59
2023-05-22T20:17:13.650Z,15.47
2023-05-22T20:20:08.119Z,15.36
2023-05-22T20:23:01.943Z,15.26
2023-05-22T20:26:02.196Z,15.22
2023-05-22T20:28:53.050Z,15.16
2023-05-22T20:31:43.923Z,15.11
2023-05-22T20:34:36.981Z,15.07
2023-05-22T20:37:34.915Z,14.99
2023-05-22T20:40:30.162Z,14.91
2023-05-22T20:43:20.602Z,14.86
2023-05-22T20:46:14.512Z,14.81
2023-05-22T20:49:09.103Z,14.75
2023-05-22T20:52:03.010Z,14.70
2023-05-22T20:54:57.271Z,14.63
2023-05-22T20:57:57.655Z,14.56
2023-05-22T21:00:59.069Z,14.52
2023-05-22T21:03:59.969Z,14.48
2023-05-22T21:07:00.022Z,14.44
2023-05-22T21:10:00.954Z,14.39
2023-05-22T21:12:54.466Z,14.32
2023-05-22T21:15:54.437Z,14.24
2023-05-22T21:18:53.768Z,14.17
2023-05-22T21:21:46.814Z,14.13
2023-05-22T21:24:37.520Z,14.09
2023-05-22T21:27:28.257Z,14.04
2023-05-22T21:30:39.555Z,13.98
2023-05-22T21:33:33.960Z,13.92
2023-05-22T21:36:28.117Z,13.88
2023-05-22T21:39:18.915Z,13.87
2023-05-22T21:42:10.237Z,13.83
2023-05-22T21:45:11.787Z,13.78
2023-05-22T21:48:11.664Z,13.71
2023-05-22T21:51:05.685Z,13.67
2023-05-22T21:54:16.948Z,13.64
2023-05-22T21:57:08.282Z,13.59
2023-05-22T22:00:02.241Z,13.53
2023-05-22T22:02:57.592Z,13.49
2023-05-22T22:06:09.673Z,13.43
2023-05-22T22:09:03.668Z,13.39
2023-05-22T22:12:14.814Z,13.34
2023-05-22T22:15:08.712Z,13.28
2023-05-22T22:18:02.697Z,13.22
2023-05-22T22:20:56.227Z,13.16
2023-05-22T22:23:52.133Z,13.08
2023-05-22T22:27:03.811Z,13.01
2023-05-22T22:29:57.438Z,12.98
2023-05-22T22:33:04.470Z,12.94
2023-05-22T22:35:59.898Z,12.90
2023-05-22T22:38:52.778Z,12.84
2023-05-22T22:41:46.662Z,12.77
2023-05-22T22:44:37.383Z,12.70
2023-05-22T22:47:30.368Z,12.64
2023-05-22T22:50:24.463Z,12.58
2023-05-22T22:53:35.206Z,12.53
2023-05-22T22:56:39.536Z,12.50
2023-05-22T22:59:50.397Z,12.46
2023-05-22T23:02:51.385Z,12.43
2023-05-22T23:06:06.523Z,12.38
2023-05-22T23:08:59.141Z,12.35
2023-05-22T23:12:01.610Z,12.28
2023-05-22T23:14:55.600Z,12.24
2023-05-22T23:17:59.214Z,12.20
2023-05-22T23:21:00.740Z,12.18
2023-05-22T23:24:06.146Z,12.13
2023-05-22T23:27:16.966Z,12.06
2023-05-22T23:30:26.871Z,12.01
2023-05-22T23:33:36.401Z,11.95
2023-05-22T23:36:46.657Z,11.90
2023-05-22T23:39:50.347Z,11.87
2023-05-22T23:42:41.020Z,11.84
2023-05-22T23:45:51.838Z,11.81
2023-05-22T23:49:02.546Z,11.77
2023-05-22T23:52:04.340Z,11.75
2023-05-22T23:55:15.149Z,11.69
2023-05-22T23:58:16.135Z,11.65
